Time;durP1;ratioP1;P1;durP2;ratioP2;P2;SDS_P1;SDS_P2;PMS_P1;PMS_P2;Temp;Humidity;BMP_temperature;BMP_pressure;BME280_temperature;BME280_humidity;BME280_pressure;Samples;Min_cycle;Max_cycle;Signal;HPM_P1;HPM_P2
2023/01/03 00:01:19;;;;;;;4.40;2.23;;;;;;;7.85;100.00;101450.34;4974149;28;20711;-70
2023/01/03 00:03:47;;;;;;;3.00;2.20;;;;;;;7.87;100.00;101443.41;4977797;28;20224;-69
2023/01/03 00:06:17;;;;;;;3.47;2.43;;;;;;;7.87;100.00;101448.59;4975353;28;20197;-69
2023/01/03 00:08:44;;;;;;;3.53;2.60;;;;;;;7.86;100.00;101441.66;4984094;28;20197;-70
2023/01/03 00:11:12;;;;;;;3.23;2.73;;;;;;;7.86;100.00;101454.66;4975664;28;20226;-70
2023/01/03 00:13:37;;;;;;;2.83;2.30;;;;;;;7.85;100.00;101460.72;4976362;28;20295;-70
2023/01/03 00:16:04;;;;;;;3.17;2.23;;;;;;;7.86;100.00;101455.53;4976208;28;20312;-70
2023/01/03 00:18:31;;;;;;;3.57;2.60;;;;;;;7.86;100.00;101470.22;4978855;28;20216;-69
2023/01/03 00:21:03;;;;;;;5.57;2.90;;;;;;;7.83;100.00;101473.72;4975249;28;20206;-70
2023/01/03 00:23:30;;;;;;;4.43;2.30;;;;;;;7.82;100.00;101481.50;4978960;28;20645;-70
2023/01/03 00:25:56;;;;;;;4.63;2.53;;;;;;;7.77;100.00;101481.50;4981562;28;20776;-70
2023/01/03 00:28:23;;;;;;;6.63;2.93;;;;;;;7.74;100.00;101489.31;4984910;28;20658;-70
2023/01/03 00:30:49;;;;;;;3.50;2.50;;;;;;;7.72;100.00;101493.59;4973396;28;20211;-71
2023/01/03 00:33:15;;;;;;;3.63;2.50;;;;;;;7.71;100.00;101494.50;4982568;28;20201;-68
2023/01/03 00:35:42;;;;;;;3.93;2.20;;;;;;;7.70;100.00;101498.78;4983302;28;20195;-69
2023/01/03 00:38:10;;;;;;;3.70;2.87;;;;;;;7.69;100.00;101507.47;4977186;28;20189;-69
2023/01/03 00:40:37;;;;;;;2.90;2.57;;;;;;;7.69;100.00;101499.69;4985195;28;20205;-70
2023/01/03 00:45:48;;;;;;;3.03;2.57;;;;;;;7.63;100.00;101507.44;4983217;28;20201;-67
2023/01/03 00:48:15;;;;;;;4.73;2.40;;;;;;;7.62;100.00;101512.66;4983836;28;20568;-69
2023/01/03 00:50:41;;;;;;;3.70;2.70;;;;;;;7.60;100.00;101523.03;4983556;28;20571;-70
2023/01/03 00:53:07;;;;;;;3.70;2.47;;;;;;;7.59;100.00;101526.50;4980380;28;20573;-70
2023/01/03 00:55:35;;;;;;;3.20;2.53;;;;;;;7.53;100.00;101523.91;4982059;28;20204;-70
2023/01/03 00:58:01;;;;;;;3.70;2.67;;;;;;;7.46;100.00;101530.81;4981272;28;20196;-70
2023/01/03 01:00:28;;;;;;;2.70;2.47;;;;;;;7.40;100.00;101535.97;4983040;28;20208;-71
2023/01/03 01:02:55;;;;;;;3.90;3.07;;;;;;;7.34;100.00;101533.41;4979407;28;20589;-70
2023/01/03 01:05:22;;;;;;;3.60;2.63;;;;;;;7.26;100.00;101535.94;4981677;28;20220;-70
2023/01/03 01:07:48;;;;;;;3.43;2.60;;;;;;;7.20;100.00;101541.16;4983100;28;20211;-70
2023/01/03 01:10:18;;;;;;;4.93;2.97;;;;;;;7.17;100.00;101541.13;4984582;28;20208;-70
2023/01/03 01:12:46;;;;;;;3.13;2.70;;;;;;;7.16;100.00;101544.59;4975371;28;20672;-66
2023/01/03 01:15:13;;;;;;;3.80;2.60;;;;;;;7.17;100.00;101557.53;4982402;28;20268;-72
2023/01/03 01:17:40;;;;;;;3.87;2.87;;;;;;;7.23;100.00;101558.44;4981951;28;20283;-73
2023/01/03 01:20:08;;;;;;;4.17;3.03;;;;;;;7.24;100.00;101562.75;4983577;28;20561;-70
2023/01/03 01:22:35;;;;;;;5.17;2.90;;;;;;;7.23;100.00;101563.63;4976809;28;20232;-72
2023/01/03 01:25:02;;;;;;;3.70;2.60;;;;;;;7.21;100.00;101573.97;4979990;28;20215;-72
2023/01/03 01:27:30;;;;;;;4.87;2.90;;;;;;;7.19;100.00;101574.00;4977783;28;20313;-71
2023/01/03 01:29:58;;;;;;;4.57;3.47;;;;;;;7.14;100.00;101570.53;4979618;28;20279;-72
2023/01/03 01:32:24;;;;;;;5.33;3.10;;;;;;;7.13;100.00;101575.72;4983386;28;20223;-71
2023/01/03 01:34:51;;;;;;;5.50;2.87;;;;;;;7.07;100.00;101571.38;4973752;28;21622;-72
2023/01/03 01:37:18;;;;;;;4.50;2.30;;;;;;;7.06;100.00;101571.38;4979527;28;20207;-73
2023/01/03 01:39:45;;;;;;;5.10;3.20;;;;;;;7.05;100.00;101577.41;4984026;28;20198;-72
2023/01/03 01:44:59;;;;;;;5.53;3.20;;;;;;;7.07;100.00;101584.34;4983613;28;20219;-72
2023/01/03 01:47:31;;;;;;;6.73;3.43;;;;;;;7.08;100.00;101587.78;4982216;28;20516;-71
2023/01/03 01:50:04;;;;;;;4.30;2.50;;;;;;;7.09;100.00;101587.81;4982234;28;20203;-72
2023/01/03 01:52:33;;;;;;;6.73;3.07;;;;;;;7.11;100.00;101588.66;4979005;28;20230;-73
2023/01/03 01:55:02;;;;;;;6.07;3.80;;;;;;;7.12;100.00;101586.94;4981186;28;20243;-73
2023/01/03 01:57:30;;;;;;;4.97;3.17;;;;;;;7.09;100.00;101589.50;4980772;28;20207;-72
2023/01/03 01:59:59;;;;;;;6.60;3.27;;;;;;;7.06;100.00;101592.97;4978836;28;20198;-73
2023/01/03 02:02:27;;;;;;;7.03;3.63;;;;;;;7.02;100.00;101596.41;4985556;28;20320;-72
2023/01/03 02:04:56;;;;;;;4.40;3.47;;;;;;;7.04;100.00;101592.09;4983820;28;20230;-73
2023/01/03 02:07:23;;;;;;;4.20;3.13;;;;;;;7.05;100.00;101601.59;4981902;28;20206;-72
2023/01/03 02:09:54;;;;;;;5.53;2.93;;;;;;;7.07;100.00;101596.41;4978953;28;20209;-72
2023/01/03 02:15:25;;;;;;;5.03;3.23;;;;;;;7.08;100.00;101600.75;4982001;28;20191;-72
2023/01/03 02:18:10;;;;;;;4.87;3.00;;;;;;;7.07;100.00;101602.50;4984648;28;20208;-72
2023/01/03 02:20:57;;;;;;;4.73;3.33;;;;;;;7.08;100.00;101611.97;4981002;28;20668;-72
2023/01/03 02:24:00;;;;;;;6.33;3.77;;;;;;;7.08;100.00;101614.59;4982646;28;20628;-73
2023/01/03 02:26:46;;;;;;;3.90;2.80;;;;;;;7.09;100.00;101618.91;4979158;28;20230;-73
2023/01/03 02:29:46;;;;;;;5.27;3.77;;;;;;;7.08;100.00;101630.13;4978772;28;20200;-71
2023/01/03 02:32:16;;;;;;;5.00;3.17;;;;;;;7.03;100.00;101631.84;4978391;28;20306;-73
2023/01/03 02:34:53;;;;;;;4.60;3.10;;;;;;;7.02;100.00;101635.31;4981661;28;20791;-70
2023/01/03 02:37:30;;;;;;;3.67;2.90;;;;;;;7.00;100.00;101640.50;4982952;28;20203;-71
2023/01/03 02:40:03;;;;;;;4.10;3.00;;;;;;;6.98;100.00;101637.03;4987539;28;20232;-72
2023/01/03 02:45:29;;;;;;;4.33;3.10;;;;;;;6.90;100.00;101637.84;4986107;28;20680;-72
2023/01/03 02:48:02;;;;;;;4.13;3.10;;;;;;;6.85;100.00;101640.41;4975061;28;20238;-73
2023/01/03 02:50:36;;;;;;;4.33;3.23;;;;;;;6.79;100.00;101646.44;4982211;28;20283;-72
2023/01/03 02:53:08;;;;;;;3.90;2.93;;;;;;;6.79;100.00;101646.44;4977482;28;20458;-73
2023/01/03 02:55:38;;;;;;;4.37;3.27;;;;;;;6.77;100.00;101648.16;4970834;28;20205;-70
2023/01/03 02:58:09;;;;;;;3.60;2.87;;;;;;;6.79;100.00;101650.75;4983558;28;20699;-73
2023/01/03 03:00:42;;;;;;;4.57;3.07;;;;;;;6.78;100.00;101649.00;4982561;28;20211;-71
2023/01/03 03:03:15;;;;;;;4.53;3.20;;;;;;;6.77;100.00;101649.84;4983033;28;20217;-72
2023/01/03 03:05:48;;;;;;;5.07;3.20;;;;;;;6.78;100.00;101651.59;4976008;28;20212;-71
2023/01/03 03:08:14;;;;;;;3.57;2.60;;;;;;;6.76;100.00;101655.91;4975311;28;20306;-71
2023/01/03 03:13:35;;;;;;;3.47;2.70;;;;;;;6.74;100.00;101662.81;4978592;28;20199;-72
2023/01/03 03:16:06;;;;;;;4.03;2.87;;;;;;;6.75;100.00;101664.53;4976377;28;20206;-70
2023/01/03 03:18:47;;;;;;;5.50;2.80;;;;;;;6.74;100.00;101666.25;4975441;28;20201;-70
2023/01/03 03:26:53;;;;;;;4.73;2.83;;;;;;;6.74;100.00;101674.03;4978216;28;20277;-71
2023/01/03 03:29:20;;;;;;;3.87;2.67;;;;;;;6.75;100.00;101669.72;4979088;28;20204;-72
2023/01/03 03:31:49;;;;;;;3.90;2.90;;;;;;;6.73;100.00;101668.84;4979733;28;20230;-72
2023/01/03 03:34:21;;;;;;;7.23;2.83;;;;;;;6.74;100.00;101676.63;4984806;28;20230;-71
2023/01/03 03:36:54;;;;;;;3.87;2.83;;;;;;;6.74;100.00;101673.19;4974271;28;20591;-73
2023/01/03 03:45:12;;;;;;;4.83;2.70;;;;;;;6.72;100.00;101680.06;4979001;28;20202;-70
2023/01/03 03:47:45;;;;;;;3.80;2.70;;;;;;;6.72;100.00;101680.94;4983272;28;20206;-73
2023/01/03 03:50:23;;;;;;;6.97;3.10;;;;;;;6.72;100.00;101690.41;4980724;28;20246;-72
2023/01/03 03:52:54;;;;;;;4.97;3.10;;;;;;;6.69;100.00;101688.69;4977970;28;20213;-71
2023/01/03 03:55:24;;;;;;;4.23;3.00;;;;;;;6.69;100.00;101691.28;4981727;28;20277;-72
2023/01/03 03:57:56;;;;;;;8.70;3.10;;;;;;;6.69;100.00;101698.19;4980554;28;20615;-72
2023/01/03 04:00:27;;;;;;;4.50;3.43;;;;;;;6.68;100.00;101699.03;4986864;28;20203;-73
2023/01/03 04:02:55;;;;;;;5.03;3.03;;;;;;;6.68;100.00;101706.81;4981851;28;20296;-73
2023/01/03 04:05:26;;;;;;;5.93;3.27;;;;;;;6.67;100.00;101707.69;4983904;28;20232;-73
2023/01/03 04:07:52;;;;;;;7.10;3.77;;;;;;;6.62;100.00;101700.72;4981561;28;20258;-73
2023/01/03 04:10:22;;;;;;;5.67;3.67;;;;;;;6.62;100.00;101700.72;4980929;28;20217;-73
2023/01/03 04:12:50;;;;;;;7.03;3.90;;;;;;;6.61;100.00;101703.31;4987262;28;20600;-73
2023/01/03 04:15:16;;;;;;;6.37;3.83;;;;;;;6.58;100.00;101711.94;4980714;28;20217;-72
2023/01/03 04:17:44;;;;;;;5.83;3.90;;;;;;;6.57;100.00;101712.78;4979315;28;20205;-72
2023/01/03 04:20:11;;;;;;;6.83;3.97;;;;;;;6.53;100.00;101708.44;4984326;28;20214;-72
2023/01/03 04:22:39;;;;;;;4.90;3.50;;;;;;;6.52;100.00;101711.03;4981860;28;20232;-73
2023/01/03 04:25:06;;;;;;;5.47;3.57;;;;;;;6.49;100.00;101722.25;4983039;28;20206;-72
2023/01/03 04:27:32;;;;;;;5.10;3.47;;;;;;;6.49;100.00;101730.00;4983501;28;20205;-73
2023/01/03 04:29:59;;;;;;;5.30;3.40;;;;;;;6.48;100.00;101730.84;4980845;28;20201;-72
2023/01/03 04:32:26;;;;;;;5.43;3.33;;;;;;;6.47;100.00;101734.28;4980173;28;20221;-73
2023/01/03 04:34:52;;;;;;;5.57;3.53;;;;;;;6.46;100.00;101742.94;4983608;28;20209;-71
2023/01/03 04:37:18;;;;;;;4.43;3.40;;;;;;;6.45;100.00;101754.13;4984648;28;20197;-72
2023/01/03 04:39:46;;;;;;;5.73;3.30;;;;;;;6.44;100.00;101753.28;4987883;28;20292;-72
2023/01/03 04:44:56;;;;;;;4.87;3.20;;;;;;;6.44;100.00;101753.28;4984541;28;20205;-72
2023/01/03 04:47:25;;;;;;;5.77;3.60;;;;;;;6.44;100.00;101760.19;4984163;28;20252;-73
2023/01/03 04:49:51;;;;;;;5.47;3.37;;;;;;;6.44;100.00;101760.19;4989020;28;20667;-71
2023/01/03 04:52:17;;;;;;;6.40;3.50;;;;;;;6.44;100.00;101758.47;4984692;28;20765;-72
2023/01/03 04:54:44;;;;;;;4.07;3.00;;;;;;;6.43;100.00;101759.31;4981775;28;20321;-72
2023/01/03 04:57:11;;;;;;;5.60;3.07;;;;;;;6.42;100.00;101756.69;4978042;28;20200;-72
2023/01/03 04:59:38;;;;;;;5.73;3.73;;;;;;;6.40;100.00;101758.41;4983375;28;20201;-73
2023/01/03 05:02:04;;;;;;;5.87;3.83;;;;;;;6.39;100.00;101770.50;4985188;28;20218;-72
2023/01/03 05:04:31;;;;;;;6.17;3.70;;;;;;;6.39;100.00;101775.69;4987040;28;20224;-73
2023/01/03 05:06:58;;;;;;;6.93;3.90;;;;;;;6.39;100.00;101773.09;4983771;28;20280;-71
2023/01/03 05:09:25;;;;;;;4.73;3.17;;;;;;;6.40;100.00;101774.84;4979251;28;20669;-72
2023/01/03 05:11:53;;;;;;;4.87;3.30;;;;;;;6.41;100.00;101770.53;4983491;28;20268;-72
2023/01/03 05:14:21;;;;;;;6.17;3.27;;;;;;;6.40;100.00;101764.47;4988157;28;20206;-73
2023/01/03 05:16:47;;;;;;;7.40;3.50;;;;;;;6.39;100.00;101777.41;4981723;28;20197;-73
2023/01/03 05:19:14;;;;;;;5.97;3.80;;;;;;;6.38;100.00;101776.53;4978309;28;20214;-73
2023/01/03 05:27:16;;;;;;;5.17;3.30;;;;;;;6.36;100.00;101787.75;4984555;28;20221;-73
2023/01/03 05:29:46;;;;;;;5.87;4.03;;;;;;;6.36;100.00;101795.50;4991033;28;20253;-73
2023/01/03 05:32:13;;;;;;;6.50;3.63;;;;;;;6.38;100.00;101802.44;4987192;28;20591;-71
2023/01/03 05:34:39;;;;;;;5.37;3.53;;;;;;;6.37;100.00;101795.53;4988349;28;20193;-71
2023/01/03 05:37:05;;;;;;;5.37;3.57;;;;;;;6.37;100.00;101797.25;4989031;28;20292;-74
2023/01/03 05:39:32;;;;;;;6.03;4.23;;;;;;;6.35;100.00;101799.84;4989951;28;20208;-72
2023/01/03 05:42:01;;;;;;;7.30;4.00;;;;;;;6.32;100.00;101810.16;4993454;28;20252;-72
2023/01/03 05:44:27;;;;;;;6.30;4.03;;;;;;;6.32;100.00;101809.31;4991306;28;20279;-70
2023/01/03 05:46:55;;;;;;;6.17;4.17;;;;;;;6.31;100.00;101811.00;4988315;28;20352;-73
2023/01/03 05:49:21;;;;;;;5.43;3.40;;;;;;;6.29;100.00;101814.44;4989167;28;20201;-72
2023/01/03 05:51:49;;;;;;;4.33;3.20;;;;;;;6.29;100.00;101817.03;4980380;28;20230;-70
2023/01/03 05:54:18;;;;;;;5.97;3.33;;;;;;;6.28;100.00;101820.47;4984688;28;20201;-73
2023/01/03 05:56:45;;;;;;;8.10;3.23;;;;;;;6.24;100.00;101816.97;4978983;28;20687;-72
2023/01/03 05:59:11;;;;;;;9.60;3.60;;;;;;;6.22;100.00;101816.94;4982458;28;20216;-71
2023/01/03 06:01:38;;;;;;;7.53;3.97;;;;;;;6.19;100.00;101827.28;4979809;28;20225;-71
2023/01/03 06:04:06;;;;;;;7.23;3.80;;;;;;;6.17;100.00;101830.69;4975768;28;20201;-70
2023/01/03 06:06:32;;;;;;;6.20;3.73;;;;;;;6.14;100.00;101836.72;4983307;28;20235;-71
2023/01/03 06:08:59;;;;;;;6.30;3.77;;;;;;;6.12;100.00;101841.03;4979650;28;20690;-70
2023/01/03 06:11:25;;;;;;;6.50;4.13;;;;;;;6.13;100.00;101847.06;4978370;28;20214;-71
2023/01/03 06:13:53;;;;;;;4.43;3.23;;;;;;;6.09;100.00;101851.34;4971805;28;20213;-70
2023/01/03 06:19:07;;;;;;;5.13;3.53;;;;;;;6.00;100.00;101848.66;4983848;28;20193;-70
2023/01/03 06:21:33;;;;;;;6.53;3.70;;;;;;;5.94;100.00;101851.97;4976329;28;20229;-70
2023/01/03 06:24:00;;;;;;;6.70;3.23;;;;;;;5.87;100.00;101851.06;4981435;28;20209;-70
2023/01/03 06:26:27;;;;;;;6.03;3.33;;;;;;;5.75;100.00;101856.06;4975016;28;20229;-71
2023/01/03 06:28:53;;;;;;;5.00;3.27;;;;;;;5.63;100.00;101849.00;4978414;28;20205;-70
2023/01/03 06:31:20;;;;;;;4.73;3.37;;;;;;;5.59;100.00;101852.38;4978977;28;20241;-70
2023/01/03 06:33:46;;;;;;;5.37;3.37;;;;;;;5.54;100.00;101855.75;4977154;28;20202;-71
2023/01/03 06:36:17;;;;;;;6.77;3.10;;;;;;;5.48;100.00;101853.94;4978175;28;20220;-70
2023/01/03 06:38:43;;;;;;;7.20;3.90;;;;;;;5.43;100.00;101856.47;4978565;28;20201;-73
2023/01/03 06:41:10;;;;;;;6.27;3.67;;;;;;;5.37;100.00;101864.13;4983502;28;20225;-70
2023/01/03 06:43:36;;;;;;;6.03;3.40;;;;;;;5.30;100.00;101870.94;4985776;28;20570;-71
2023/01/03 06:54:22;;;;;;;4.17;2.50;;;;;;;5.19;100.00;101890.59;4962571;28;20296;-70
2023/01/03 06:56:49;;;;;;;6.43;3.13;;;;;;;5.17;100.00;101894.88;4981579;28;20204;-71
2023/01/03 06:59:15;;;;;;;6.13;3.40;;;;;;;5.16;100.00;101898.28;4980026;28;20696;-70
2023/01/03 07:01:42;;;;;;;6.57;3.37;;;;;;;5.14;100.00;101899.97;4975330;28;20385;-71
2023/01/03 07:04:08;;;;;;;4.07;2.80;;;;;;;5.15;100.00;101900.84;4975954;28;20208;-70
2023/01/03 07:06:36;;;;;;;5.47;2.63;;;;;;;5.12;100.00;101899.97;4979162;28;20275;-70
2023/01/03 07:09:02;;;;;;;3.93;2.90;;;;;;;5.07;100.00;101904.19;4980208;28;20216;-71
2023/01/03 07:11:29;;;;;;;6.37;3.00;;;;;;;5.07;100.00;101906.75;4976328;28;20220;-69
2023/01/03 07:13:57;;;;;;;5.30;3.17;;;;;;;5.03;100.00;101915.31;4978036;28;20573;-70
2023/01/03 07:16:25;;;;;;;4.53;3.37;;;;;;;4.99;100.00;101923.84;4976066;28;20685;-69
2023/01/03 07:18:52;;;;;;;7.40;3.33;;;;;;;4.96;100.00;101913.47;4978928;28;20573;-69
2023/01/03 07:21:19;;;;;;;4.37;3.07;;;;;;;4.92;100.00;101919.41;4979573;28;20225;-71
2023/01/03 07:23:46;;;;;;;5.43;3.63;;;;;;;4.86;100.00;101914.16;4979701;28;20279;-70
2023/01/03 07:26:13;;;;;;;5.03;3.37;;;;;;;4.78;100.00;101919.16;4976225;28;20233;-70
2023/01/03 07:28:39;;;;;;;5.17;3.30;;;;;;;4.73;100.00;101920.78;4978671;28;20209;-72
2023/01/03 07:31:06;;;;;;;5.17;3.03;;;;;;;4.64;100.00;101926.66;4978382;28;20229;-70
2023/01/03 07:33:33;;;;;;;4.87;3.10;;;;;;;4.60;100.00;101935.19;4978204;28;20208;-68
2023/01/03 07:36:01;;;;;;;5.37;2.87;;;;;;;4.49;100.00;101932.41;4982707;28;20205;-69
2023/01/03 07:38:27;;;;;;;4.10;2.93;;;;;;;4.44;100.00;101934.00;4978390;28;20197;-69
2023/01/03 07:40:57;;;;;;;4.27;3.27;;;;;;;4.35;100.00;101936.41;4980324;28;20544;-71
2023/01/03 07:43:37;;;;;;;6.00;3.13;;;;;;;4.25;100.00;101932.75;4983542;28;20274;-68
2023/01/03 07:46:06;;;;;;;4.07;3.00;;;;;;;4.20;100.00;101926.63;4985656;28;20232;-70
2023/01/03 07:48:32;;;;;;;2.83;2.37;;;;;;;4.13;100.00;101929.94;4976866;28;20200;-71
2023/01/03 07:50:59;;;;;;;4.80;3.00;;;;;;;4.06;100.00;101935.78;4977753;28;20216;-69
2023/01/03 07:53:26;;;;;;;7.53;3.10;;;;;;;3.96;100.00;101943.34;4977867;28;20197;-70
2023/01/03 07:55:53;;;;;;;5.30;3.17;;;;;;;3.90;100.00;101948.34;4983096;28;20242;-71
2023/01/03 07:58:21;;;;;;;3.67;2.77;;;;;;;3.85;100.00;101949.97;4977597;28;20296;-68
2023/01/03 08:00:47;;;;;;;4.47;3.43;;;;;;;3.82;100.00;101957.66;4981766;28;20185;-69
2023/01/03 08:03:14;;;;;;;7.67;3.63;;;;;;;3.77;100.00;101954.09;4980428;28;20223;-69
2023/01/03 08:05:40;;;;;;;4.77;3.47;;;;;;;3.76;100.00;101958.38;4976793;28;20214;-69
2023/01/03 08:08:07;;;;;;;3.93;3.17;;;;;;;3.72;100.00;101964.28;4977588;28;20198;-69
2023/01/03 08:13:18;;;;;;;5.77;3.30;;;;;;;3.67;100.00;101968.47;4980186;28;20226;-70
2023/01/03 08:15:48;;;;;;;5.47;2.93;;;;;;;3.69;100.00;101973.66;4980689;28;20293;-72
2023/01/03 08:18:15;;;;;;;7.30;3.70;;;;;;;3.73;100.00;101978.06;4972738;28;20237;-69
2023/01/03 08:20:41;;;;;;;6.57;3.30;;;;;;;3.76;100.00;101975.56;4979478;28;20200;-70
2023/01/03 08:23:08;;;;;;;5.00;3.73;;;;;;;3.82;100.00;101974.81;4979918;28;20690;-71
2023/01/03 08:25:34;;;;;;;5.90;3.47;;;;;;;3.83;100.00;101971.41;4984860;28;20205;-69
2023/01/03 08:28:02;;;;;;;5.17;3.60;;;;;;;3.85;100.00;101973.19;4983163;28;20208;-69
2023/01/03 08:30:29;;;;;;;7.87;4.07;;;;;;;3.86;100.00;101986.97;4981239;28;20208;-69
2023/01/03 08:33:01;;;;;;;8.00;4.23;;;;;;;3.88;100.00;101988.75;4980478;28;20213;-69
2023/01/03 08:35:34;;;;;;;7.03;3.33;;;;;;;3.90;100.00;101989.66;4977488;28;20513;-70
2023/01/03 08:38:04;;;;;;;5.97;3.90;;;;;;;3.90;100.00;101999.97;4978123;28;20197;-69
2023/01/03 08:40:34;;;;;;;7.13;3.23;;;;;;;3.91;100.00;101986.25;4981192;28;20201;-69
2023/01/03 08:43:03;;;;;;;6.03;3.90;;;;;;;3.95;100.00;101993.19;4980128;28;20217;-69
2023/01/03 08:45:30;;;;;;;5.93;4.07;;;;;;;3.97;100.00;101998.41;4980553;28;20212;-69
2023/01/03 08:48:00;;;;;;;9.13;3.57;;;;;;;3.96;100.00;102007.00;4984472;28;20595;-69
2023/01/03 08:50:29;;;;;;;9.70;4.37;;;;;;;3.98;100.00;102007.91;4986497;28;20233;-69
2023/01/03 08:52:55;;;;;;;7.83;3.80;;;;;;;4.00;100.00;102006.22;4986052;28;20217;-69
2023/01/03 08:55:22;;;;;;;10.90;4.43;;;;;;;4.05;100.00;102002.03;4980172;28;20209;-70
2023/01/03 08:57:48;;;;;;;6.60;4.13;;;;;;;4.05;100.00;102004.63;4978043;28;20565;-70
2023/01/03 09:00:15;;;;;;;10.13;4.33;;;;;;;4.09;100.00;102009.00;4981688;28;20201;-70
2023/01/03 09:02:42;;;;;;;8.77;4.47;;;;;;;4.20;100.00;102019.56;4987219;28;20608;-70
2023/01/03 09:05:10;;;;;;;9.83;4.50;;;;;;;4.31;100.00;102018.13;4978740;28;20544;-70
2023/01/03 09:07:36;;;;;;;12.03;5.60;;;;;;;4.46;100.00;102020.16;4980681;28;20220;-70
2023/01/03 09:10:03;;;;;;;9.10;4.93;;;;;;;4.64;100.00;102030.00;4982854;28;20210;-70
2023/01/03 09:12:29;;;;;;;7.50;4.97;;;;;;;4.77;100.00;102023.38;4985677;28;20482;-70
2023/01/03 09:14:56;;;;;;;16.57;7.40;;;;;;;4.82;100.00;102026.03;4985126;28;20202;-70
2023/01/03 09:17:23;;;;;;;12.53;6.70;;;;;;;4.85;100.00;102034.72;4977970;28;20205;-70
2023/01/03 09:19:50;;;;;;;25.80;13.40;;;;;;;4.98;100.00;102040.13;4981513;28;20222;-70
2023/01/03 09:22:17;;;;;;;12.73;7.57;;;;;;;5.18;100.00;102050.88;4974910;28;20244;-70
2023/01/03 09:24:44;;;;;;;11.53;6.10;;;;;;;5.33;100.00;102061.50;4982511;28;20209;-70
2023/01/03 09:27:10;;;;;;;9.97;5.70;;;;;;;5.44;100.00;102064.28;4977158;28;20705;-70
2023/01/03 09:29:36;;;;;;;9.30;5.63;;;;;;;5.52;100.00;102062.69;4985229;28;20197;-70
2023/01/03 09:32:03;;;;;;;13.17;6.17;;;;;;;5.57;100.00;102057.59;4982762;28;20232;-70
2023/01/03 09:34:29;;;;;;;8.13;5.47;;;;;;;5.57;100.00;102053.28;4982647;28;20205;-70
2023/01/03 09:36:56;;;;;;;10.27;5.47;;;;;;;5.57;100.00;102049.84;4982441;28;20193;-69
2023/01/03 09:39:23;;;;;;;9.53;5.80;;;;;;;5.47;100.00;102054.88;4982070;28;20225;-70
2023/01/03 09:43:11;;;;;;;8.90;5.40;;;;;;;5.39;100.00;102053.00;4983786;28;20213;-69
2023/01/03 09:44:39;;;;;;;9.53;5.57;;;;;;;5.29;100.00;102051.94;4978055;28;20205;-70
2023/01/03 09:47:05;;;;;;;10.40;5.60;;;;;;;5.25;100.00;102050.16;4980689;28;20359;-70
2023/01/03 09:49:40;;;;;;;11.90;5.43;;;;;;;5.22;100.00;102044.91;4978669;28;20201;-69
2023/01/03 10:03:44;;;;;;;9.83;5.00;;;;;;;5.11;100.00;102055.06;4983857;28;20288;-70
2023/01/03 10:06:22;;;;;;;9.13;5.47;;;;;;;5.13;100.00;102048.19;4982633;28;20217;-70
2023/01/03 10:09:02;;;;;;;11.67;5.40;;;;;;;5.14;100.00;102042.19;4983398;28;20190;-70
2023/01/03 10:11:39;;;;;;;10.57;5.20;;;;;;;5.19;100.00;102043.16;4984553;28;20275;-70
2023/01/03 10:14:20;;;;;;;9.43;5.43;;;;;;;5.24;100.00;102051.88;4977454;28;20208;-70
2023/01/03 10:16:57;;;;;;;8.33;5.13;;;;;;;5.28;100.00;102040.72;4982461;28;20706;-70
2023/01/03 10:19:55;;;;;;;8.63;4.43;;;;;;;5.34;100.00;102049.44;4979860;28;20758;-70
2023/01/03 10:22:26;;;;;;;10.97;5.30;;;;;;;5.40;100.00;102044.38;4973947;28;20733;-69
2023/01/03 10:25:02;;;;;;;8.80;5.23;;;;;;;5.51;100.00;102045.44;4984667;28;20197;-70
2023/01/03 10:27:33;;;;;;;13.63;5.30;;;;;;;5.59;100.00;102042.97;4987560;28;20733;-70
2023/01/03 10:30:01;;;;;;;9.97;4.77;;;;;;;5.64;100.00;102039.63;4974820;28;20208;-70
2023/01/03 10:32:48;;;;;;;12.70;5.13;;;;;;;5.63;100.00;102035.31;4983050;28;20219;-70
2023/01/03 10:35:18;;;;;;;7.93;4.73;;;;;;;5.60;100.00;102039.56;4984280;28;20213;-70
2023/01/03 10:37:45;;;;;;;8.40;4.63;;;;;;;5.57;100.00;102040.34;4981389;28;20205;-70
2023/01/03 10:40:13;;;;;;;10.07;4.87;;;;;;;5.55;100.00;102036.88;4978618;28;20299;-70
2023/01/03 10:42:42;;;;;;;7.93;4.87;;;;;;;5.54;100.00;102042.03;4981248;28;20226;-69
2023/01/03 10:45:13;;;;;;;10.17;4.93;;;;;;;5.60;100.00;102044.72;4978191;28;20621;-70
2023/01/03 10:47:39;;;;;;;10.07;5.60;;;;;;;5.67;100.00;102044.84;4978859;28;20217;-70
2023/01/03 10:50:08;;;;;;;8.17;5.30;;;;;;;5.80;100.00;102045.06;4979494;28;20236;-69
2023/01/03 10:52:37;;;;;;;10.83;5.50;;;;;;;6.00;100.00;102037.66;4981655;28;20221;-70
2023/01/03 10:55:11;;;;;;;9.50;5.87;;;;;;;6.18;100.00;102037.91;4980692;28;20574;-70
2023/01/03 10:57:43;;;;;;;13.60;6.37;;;;;;;6.28;100.00;102033.75;4979756;28;20200;-70
2023/01/03 11:00:23;;;;;;;9.73;6.07;;;;;;;6.39;100.00;102036.47;4979325;28;20684;-70
2023/01/03 11:02:51;;;;;;;8.57;5.20;;;;;;;6.47;100.00;102044.34;4978887;28;20300;-70
2023/01/03 11:05:19;;;;;;;11.10;5.40;;;;;;;6.45;100.00;102033.97;4979681;28;20848;-70
2023/01/03 11:07:53;;;;;;;10.23;5.93;;;;;;;6.34;100.00;102041.59;4983525;28;20214;-70
2023/01/03 11:10:20;;;;;;;7.67;5.27;;;;;;;6.25;100.00;102033.69;4981591;28;20563;-70
2023/01/03 11:12:49;;;;;;;9.27;5.40;;;;;;;6.18;100.00;102042.22;4978115;28;20229;-70
2023/01/03 11:15:18;;;;;;;7.20;4.57;;;;;;;6.14;100.00;102038.72;4972641;28;20205;-70
2023/01/03 11:17:55;;;;;;;10.10;5.67;;;;;;;6.07;100.00;102032.56;4982790;28;20229;-69
2023/01/03 11:20:33;;;;;;;8.57;4.83;;;;;;;5.98;100.00;102032.44;4978923;28;20231;-70
2023/01/03 11:23:07;;;;;;;6.40;4.47;;;;;;;5.93;100.00;102033.16;5007014;23;20239;-75
2023/01/03 11:25:44;;;;;;;10.03;5.20;;;;;;;5.90;100.00;102031.41;4982857;28;20230;-74
2023/01/03 11:28:47;;;;;;;8.80;5.90;;;;;;;5.89;100.00;102034.84;4987156;28;20209;-75
2023/01/03 11:31:24;;;;;;;8.70;4.83;;;;;;;5.94;100.00;102025.44;4953430;28;20225;-75
2023/01/03 11:34:05;;;;;;;10.17;5.30;;;;;;;6.02;100.00;102033.38;4961557;28;20214;-75
2023/01/03 11:36:46;;;;;;;9.43;5.37;;;;;;;6.04;100.00;102027.34;4959343;28;20209;-76
2023/01/03 11:39:29;;;;;;;7.47;5.07;;;;;;;6.15;100.00;102031.81;4965387;28;20576;-73
2023/01/03 11:42:15;;;;;;;8.63;5.40;;;;;;;6.14;100.00;102025.78;4964015;28;20226;-73
2023/01/03 11:45:29;;;;;;;7.77;5.67;;;;;;;6.15;100.00;102022.31;4963046;28;20209;-75
2023/01/03 11:48:11;;;;;;;6.97;4.90;;;;;;;6.30;100.00;102028.56;4938772;28;20257;-75
2023/01/03 11:50:48;;;;;;;6.43;4.87;;;;;;;6.37;100.00;102026.09;4967218;28;20206;-76
2023/01/03 11:53:28;;;;;;;8.40;5.23;;;;;;;6.42;100.00;102019.25;4960123;28;20222;-73
2023/01/03 11:56:09;;;;;;;11.90;5.10;;;;;;;6.43;100.00;102023.56;4962626;28;20217;-75
2023/01/03 11:58:53;;;;;;;7.67;5.47;;;;;;;6.48;100.00;102025.38;4960292;28;20221;-74
2023/01/03 12:01:32;;;;;;;7.57;4.57;;;;;;;6.55;100.00;102022.88;4957073;28;20220;-74
2023/01/03 12:04:18;;;;;;;7.47;4.87;;;;;;;6.60;100.00;102023.81;4956309;28;20630;-73
2023/01/03 12:06:54;;;;;;;6.43;4.67;;;;;;;6.68;100.00;102023.03;4965799;28;20206;-73
2023/01/03 12:09:27;;;;;;;7.40;4.50;;;;;;;6.62;100.00;102026.41;4957325;28;20297;-75
2023/01/03 12:12:17;;;;;;;5.97;4.27;;;;;;;6.48;100.00;102028.81;4956272;28;20720;-75
2023/01/03 12:14:47;;;;;;;5.93;3.77;;;;;;;6.33;100.00;102024.31;4956937;28;20203;-75
2023/01/03 12:17:20;;;;;;;5.87;3.40;;;;;;;6.28;100.00;102028.56;4963823;28;20289;-76
2023/01/03 12:19:52;;;;;;;6.90;3.63;;;;;;;6.31;100.00;102022.53;4962517;28;20254;-75
2023/01/03 12:22:27;;;;;;;4.60;3.40;;;;;;;6.30;100.00;102018.19;4962204;28;20242;-76
2023/01/03 12:24:57;;;;;;;8.87;6.00;;;;;;;6.34;100.00;102022.59;4966928;28;20205;-76
2023/01/03 12:27:30;;;;;;;7.43;4.03;;;;;;;6.32;100.00;102019.97;4967247;28;20215;-76
2023/01/03 12:30:02;;;;;;;7.23;5.23;;;;;;;6.33;100.00;102013.06;4963891;28;20587;-73
2023/01/03 12:32:34;;;;;;;6.07;4.00;;;;;;;6.33;100.00;102013.06;4963922;28;20226;-75
2023/01/03 12:35:15;;;;;;;41.07;23.47;;;;;;;6.33;100.00;101998.41;4968074;28;20477;-75
2023/01/03 12:37:44;;;;;;;5.43;4.00;;;;;;;6.34;100.00;102009.66;4971494;28;20198;-76